Flight Track Log - Related Links

Times and Time Zones

All times are in EDT time to prevent confusion due to time zone crossing. See the AAL297 flight status page for this flight to view local times or setup timezone preferences in your user account.

Time Position Orientation Groundspeed Altitude Reporting Facility
EDT Latitude Longitude Course Direction KTS MPH feet Rate Location/Type
Wed 02:35:24 PM 32.9167 -97.0500 292° West 151 174 2,500  Level Dallas / Fort Worth TRACON
Wed 02:36:25 PM 32.9667 -97.0667 344° North 221 254 4,500 2,380 Climbing Dallas / Fort Worth TRACON
Wed 02:37:00 PM 32.6833 -97.1902 270° West  Level FlightAware Approximate
Wed 02:37:25 PM 33.0167 -97.1167 320° Northwest 259 298 7,300  Level Dallas / Fort Worth TRACON
Wed 02:38:00 PM 32.7076 -97.3043 293° West  Level FlightAware Approximate
Wed 02:38:31 PM 33.0000 -97.2167 259° West 257 296 9,800  Level Dallas / Fort Worth TRACON
Wed 02:39:00 PM 32.7482 -97.4158 293° West  Level FlightAware Approximate
Wed 02:39:31 PM 32.9833 -97.3000 257° West 261 300 10,100  Level Dallas / Fort Worth TRACON
Wed 02:40:00 PM 32.7872 -97.5280 292° West  Level FlightAware Approximate
Wed 02:40:43 PM 32.9544 -97.4036 252° West 311 358 11,400  Level Fort Worth Center
Wed 02:41:43 PM 32.9231 -97.5222 253° West 330 380 14,100 2,650 Climbing Fort Worth Center
Wed 02:42:43 PM 32.8936 -97.6336 253° West 335 386 16,700 2,250 Climbing Fort Worth Center
Wed 02:43:43 PM 32.8664 -97.7422 253° West 346 398 18,600 1,750 Climbing Fort Worth Center
Wed 02:44:43 PM 32.8639 -97.8636 269° West 357 411 20,200 1,700 Climbing Fort Worth Center
Wed 02:45:43 PM 32.8947 -97.9850 287° West 370 426 22,000 1,600 Climbing Fort Worth Center
Wed 02:46:43 PM 32.9192 -98.0792 287° West 377 434 23,400 1,500 Climbing Fort Worth Center
Wed 02:47:43 PM 32.9603 -98.2181 289° West 395 455 25,000 1,500 Climbing Fort Worth Center
Wed 02:48:43 PM 32.9969 -98.3447 289° West 400 460 26,400 1,400 Climbing Fort Worth Center
Wed 02:49:43 PM 33.0314 -98.4664 289° West 400 460 27,800 1,250 Climbing Fort Worth Center
Wed 02:50:43 PM 33.0658 -98.5933 288° West 400 460 28,900 1,450 Climbing Fort Worth Center
Wed 02:51:43 PM 33.1019 -98.7203 289° West 406 467 30,700 1,600 Climbing Fort Worth Center
Wed 02:52:43 PM 33.1361 -98.8450 288° West 406 467 32,100 1,650 Climbing Fort Worth Center
Wed 02:53:43 PM 33.1722 -98.9669 290° West 395 455 34,000 2,000 Climbing Fort Worth Center
Wed 02:54:43 PM 33.2042 -99.0867 288° West 390 449 36,100 1,700 Climbing Fort Worth Center
Wed 02:55:43 PM 33.2358 -99.2017 288° West 379 436 37,400 950 Climbing Fort Worth Center
Wed 02:56:43 PM 33.2697 -99.3192 289° West 374 430 38,000 300 Climbing Fort Worth Center
Wed 02:57:43 PM 33.3014 -99.4367 288° West 374 430 38,000  Level Fort Worth Center
Wed 02:58:43 PM 33.3347 -99.5542 289° West 374 430 38,000  Level Fort Worth Center
Wed 02:59:43 PM 33.3642 -99.6719 287° West 374 430 38,000  Level Fort Worth Center
Wed 03:00:43 PM 33.3972 -99.7897 289° West 374 430 38,000  Level Fort Worth Center
Wed 03:01:43 PM 33.4286 -99.9050 288° West 374 430 38,000  Level Fort Worth Center
Wed 03:02:43 PM 33.4575 -100.0228 286° West 369 425 38,000  Level Fort Worth Center
Wed 03:03:43 PM 33.4883 -100.1383 288° West 369 425 38,000  Level Fort Worth Center
Wed 03:04:43 PM 33.5211 -100.2564 288° West 369 425 38,000  Level Fort Worth Center
Wed 03:05:43 PM 33.5519 -100.3744 287° West 364 419 38,000  Level Fort Worth Center
Wed 03:06:43 PM 33.5825 -100.4878 288° West 364 419 38,000  Level Fort Worth Center
Wed 03:07:43 PM 33.6131 -100.6036 288° West 369 425 38,000  Level Fort Worth Center
Wed 03:08:43 PM 33.6492 -100.7347 288° West 369 425 38,000  Level Fort Worth Center
Wed 03:09:43 PM 33.6736 -100.8378 286° West 364 419 38,000  Level Fort Worth Center
Wed 03:10:43 PM 33.7075 -100.9664 288° West 364 419 38,000  Level Fort Worth Center
Wed 03:11:43 PM 33.7297 -101.0672 285° West 364 419 38,000  Level Fort Worth Center
Wed 03:12:43 PM 33.7656 -101.1961 289° West 369 425 38,000  Level Fort Worth Center
Wed 03:13:43 PM 33.7914 -101.3022 286° West 362 417 38,000  Level Fort Worth Center
Wed 03:14:43 PM 33.8231 -101.4286 287° West 367 422 38,000  Level Fort Worth Center
Wed 03:15:43 PM 33.8489 -101.5325 287° West 367 422 38,000  Level Fort Worth Center
Wed 03:16:43 PM 33.8842 -101.6592 289° West 367 422 38,000  Level Fort Worth Center
Wed 03:17:45 PM 33.9100 -101.7631 287° West 367 422 38,000  Level Fort Worth Center
Wed 03:18:43 PM 33.9369 -101.8794 286° West 367 422 38,000  Level Fort Worth Center
Wed 03:19:43 PM 33.9678 -102.0089 286° West 367 422 38,000  Level Fort Worth Center
Wed 03:20:43 PM 33.9933 -102.1128 287° West 367 422 38,000 150 Level Fort Worth Center
Wed 03:21:43 PM 34.0239 -102.2397 286° West 367 422 38,300 600 Climbing Fort Worth Center
Wed 03:22:43 PM 34.0492 -102.3414 287° West 367 422 39,200 857 Climbing Fort Worth Center
Wed 03:23:21 PM 34.0683 -102.4164 287° West 359 413 39,700 480 Climbing Albuquerque Center
Wed 03:24:23 PM 34.0964 -102.5311 286° West 358 412 40,000 145 Climbing Albuquerque Center
Wed 03:25:25 PM 34.1244 -102.6469 286° West 360 414 40,000  Level Albuquerque Center
Wed 03:26:27 PM 34.1531 -102.7608 287° West 357 411 40,000  Level Albuquerque Center
Wed 03:27:29 PM 34.1861 -102.9011 286° West 361 415 40,000  Level Albuquerque Center
Wed 03:28:31 PM 34.2139 -103.0178 286° West 363 418 40,000  Level Albuquerque Center
Wed 03:29:33 PM 34.2433 -103.1450 286° West 367 422 40,000  Level Albuquerque Center
Wed 03:30:35 PM 34.2708 -103.2653 285° West 367 422 40,000  Level Albuquerque Center
Wed 03:31:37 PM 34.2994 -103.3836 286° West 364 419 40,000  Level Albuquerque Center
Wed 03:32:39 PM 34.3267 -103.5014 286° West 361 415 40,000  Level Albuquerque Center
Wed 03:33:42 PM 34.3531 -103.6186 285° West 359 413 40,000  Level Albuquerque Center
Wed 03:34:44 PM 34.3803 -103.7358 286° West 358 412 40,000  Level Albuquerque Center
Wed 03:35:46 PM 34.4114 -103.8731 285° West 358 412 40,000  Level Albuquerque Center
Wed 03:36:48 PM 34.4378 -103.9906 285° West 358 412 40,000  Level Albuquerque Center
Wed 03:37:50 PM 34.4639 -104.1056 285° West 354 407 40,000  Level Albuquerque Center
Wed 03:38:52 PM 34.4911 -104.2219 286° West 354 407 40,000  Level Albuquerque Center
Wed 03:39:54 PM 34.5167 -104.3411 285° West 357 411 40,000  Level Albuquerque Center
Wed 03:40:56 PM 34.5436 -104.4594 285° West 359 413 40,000  Level Albuquerque Center
Wed 03:41:58 PM 34.5703 -104.5767 285° West 357 411 40,000  Level Albuquerque Center
Wed 03:43:00 PM 34.5972 -104.6981 285° West 364 419 40,000  Level Albuquerque Center
Wed 03:44:02 PM 34.6272 -104.8383 285° West 364 419 40,000  Level Albuquerque Center
Wed 03:45:04 PM 34.6539 -104.9583 285° West 363 418 40,000  Level Albuquerque Center
Wed 03:46:06 PM 34.6811 -105.0792 285° West 366 421 40,000  Level Albuquerque Center
Wed 03:47:08 PM 34.7069 -105.1986 285° West 364 419 40,000  Level Albuquerque Center
Wed 03:48:10 PM 34.7331 -105.3181 285° West 363 418 40,000  Level Albuquerque Center
Wed 03:49:12 PM 34.7578 -105.4392 284° West 364 419 40,000  Level Albuquerque Center
Wed 03:50:14 PM 34.7850 -105.5603 285° West 366 421 40,000  Level Albuquerque Center
Wed 03:51:16 PM 34.8100 -105.6800 284° West 363 418 40,000  Level Albuquerque Center
Wed 03:52:18 PM 34.8403 -105.8206 285° West 364 419 40,000  Level Albuquerque Center
Wed 03:53:20 PM 34.8628 -105.9264 285° West 363 418 40,000  Level Albuquerque Center
Wed 03:54:22 PM 34.8858 -106.0456 283° West 362 417 40,000  Level Albuquerque Center
Wed 03:55:24 PM 34.9106 -106.1631 284° West 361 415 40,000  Level Albuquerque Center
Wed 03:56:26 PM 34.9403 -106.3072 284° West 365 420 40,000  Level Albuquerque Center
Wed 03:57:27 PM 34.9653 -106.4269 284° West 365 420 40,000  Level Albuquerque Center
Wed 03:58:29 PM 34.9906 -106.5578 283° West 366 421 40,000  Level Albuquerque Center
Wed 03:59:31 PM 35.0133 -106.6731 284° West 367 422 40,000  Level Albuquerque Center
Wed 04:00:33 PM 35.0397 -106.8064 284° West 363 418 40,000  Level Albuquerque Center
Wed 04:01:35 PM 35.0403 -106.9211 270° West 355 409 40,000  Level Albuquerque Center
Wed 04:02:37 PM 35.0403 -107.0378 270° West 360 414 40,000  Level Albuquerque Center
Wed 04:03:39 PM 35.0300 -107.1744 265° West 362 417 40,000  Level Albuquerque Center
Wed 04:04:41 PM 35.0194 -107.2861 263° West 370 426 40,000  Level Albuquerque Center
Wed 04:06:45 PM 35.0006 -107.5569 265° West 364 419 40,000  Level Albuquerque Center
Wed 04:07:47 PM 34.9911 -107.6803 265° West 366 421 40,000  Level Albuquerque Center
Wed 04:08:49 PM 34.9811 -107.8036 264° West 365 420 40,000  Level Albuquerque Center
Wed 04:09:51 PM 34.9711 -107.9433 265° West 364 419 40,000  Level Albuquerque Center
Wed 04:10:53 PM 34.9625 -108.0594 265° West 360 414 40,000  Level Albuquerque Center
Wed 04:11:55 PM 34.9511 -108.1953 264° West 361 415 40,000  Level Albuquerque Center
Wed 04:12:57 PM 34.9431 -108.3108 265° West 358 412 40,000  Level Albuquerque Center
Wed 04:13:59 PM 34.9331 -108.4289 264° West 362 417 40,000  Level Albuquerque Center
Wed 04:15:01 PM 34.9219 -108.5647 264° West 362 417 40,000  Level Albuquerque Center
Wed 04:16:03 PM 34.9125 -108.6803 264° West 360 414 40,000  Level Albuquerque Center
Wed 04:17:05 PM 34.9014 -108.8175 264° West 362 417 40,000  Level Albuquerque Center
Wed 04:18:07 PM 34.8922 -108.9342 265° West 361 415 40,000  Level Albuquerque Center
Wed 04:19:09 PM 34.8800 -109.0714 264° West 363 418 40,000  Level Albuquerque Center
Wed 04:20:11 PM 34.8694 -109.1883 264° West 363 418 40,000  Level Albuquerque Center
Wed 04:21:13 PM 34.8567 -109.3261 264° West 364 419 40,000  Level Albuquerque Center
Wed 04:22:15 PM 34.8467 -109.4447 264° West 365 420 40,000  Level Albuquerque Center
Wed 04:23:17 PM 34.8342 -109.5767 263° West 356 410 40,000  Level Albuquerque Center
Wed 04:24:19 PM 34.8231 -109.6967 264° West 364 419 40,000  Level Albuquerque Center
Wed 04:25:21 PM 34.8122 -109.8153 264° West 367 422 40,000  Level Albuquerque Center
Wed 04:26:23 PM 34.7992 -109.9531 263° West 367 422 40,000  Level Albuquerque Center
Wed 04:27:25 PM 34.7886 -110.0706 264° West 366 421 40,000  Level Albuquerque Center
Wed 04:28:27 PM 34.7772 -110.2150 265° West 377 434 40,000  Level Albuquerque Center
Wed 04:29:29 PM 34.7661 -110.3347 264° West 374 430 40,000  Level Albuquerque Center
Wed 04:30:31 PM 34.7514 -110.4711 263° West 368 423 40,000  Level Albuquerque Center
Wed 04:31:33 PM 34.7394 -110.5881 263° West 366 421 40,000  Level Albuquerque Center
Wed 04:32:35 PM 34.7253 -110.7286 263° West 370 426 40,000  Level Albuquerque Center
Wed 04:33:37 PM 34.7119 -110.8436 262° West 375 432 40,000  Level Albuquerque Center
Wed 04:34:39 PM 34.6997 -110.9678 263° West 374 430 40,000  Level Albuquerque Center
Wed 04:35:41 PM 34.6872 -111.0903 263° West 371 427 40,000  Level Albuquerque Center
Wed 04:36:43 PM 34.6717 -111.2378 263° West 369 425 40,000  Level Albuquerque Center
Wed 04:37:45 PM 34.6581 -111.3608 262° West 369 425 40,000  Level Albuquerque Center
Wed 04:38:48 PM 34.6450 -111.4839 263° West 369 425 40,000  Level Albuquerque Center
Wed 04:39:50 PM 34.6322 -111.6067 263° West 369 425 40,000  Level Albuquerque Center
Wed 04:40:52 PM 34.6192 -111.7286 263° West 368 423 40,000  Level Albuquerque Center
Wed 04:41:54 PM 34.6025 -111.8767 262° West 369 425 40,000  Level Albuquerque Center
Wed 04:42:56 PM 34.5892 -112.0014 263° West 372 428 40,000  Level Albuquerque Center
Wed 04:43:58 PM 34.5753 -112.1258 262° West 374 430 40,000  Level Albuquerque Center
Wed 04:45:00 PM 34.5606 -112.2500 262° West 374 430 40,000  Level Albuquerque Center
Wed 04:46:02 PM 34.5469 -112.3769 263° West 375 432 40,000 -290 Level Albuquerque Center
Wed 04:47:04 PM 34.5331 -112.5031 262° West 376 433 39,400 -968 Descending Albuquerque Center
Wed 04:48:06 PM 34.5164 -112.6514 262° West 373 429 38,000 -677 Descending Albuquerque Center
Wed 04:49:08 PM 34.5011 -112.7786 262° West 378 435 38,000  Level Albuquerque Center
Wed 04:50:10 PM 34.4861 -112.9086 262° West 386 444 38,000  Level Albuquerque Center
Wed 04:51:12 PM 34.4706 -113.0394 262° West 392 451 38,000  Level Albuquerque Center
Wed 04:52:14 PM 34.4550 -113.1694 262° West 393 452 38,000  Level Albuquerque Center
Wed 04:53:16 PM 34.4356 -113.3253 261° West 392 451 38,000  Level Albuquerque Center
Wed 04:54:18 PM 34.4200 -113.4517 262° West 391 450 38,000  Level Albuquerque Center
Wed 04:55:20 PM 34.4031 -113.5831 261° West 394 453 38,000  Level Albuquerque Center
Wed 04:56:22 PM 34.3878 -113.7133 262° West 390 449 38,000  Level Albuquerque Center
Wed 04:57:24 PM 34.3728 -113.8417 262° West 388 447 38,000  Level Albuquerque Center
Wed 04:58:26 PM 34.3528 -114.0000 261° West 390 449 38,000  Level Albuquerque Center
Wed 04:59:28 PM 34.3339 -114.1364 261° West 397 457 38,000  Level Albuquerque Center
Wed 05:00:30 PM 34.3156 -114.2706 261° West 402 463 38,000  Level Albuquerque Center
Wed 05:01:32 PM 34.2981 -114.4025 261° West 401 461 38,000  Level Albuquerque Center
Wed 05:02:01 PM 34.2919 -114.4656 263° West 402 463 38,000  Level Los Angeles Center
Wed 05:03:03 PM 34.2736 -114.5989 261° West 403 464 38,000  Level Los Angeles Center
Wed 05:04:05 PM 34.2558 -114.7347 261° West 409 471 38,000  Level Los Angeles Center
Wed 05:05:07 PM 34.2347 -114.8975 261° West 410 472 38,000  Level Los Angeles Center
Wed 05:06:09 PM 34.2158 -115.0328 260° West 410 472 38,000  Level Los Angeles Center
Wed 05:07:11 PM 34.1975 -115.1681 261° West 410 472 38,000  Level Los Angeles Center
Wed 05:08:14 PM 34.1781 -115.3033 260° West 410 472 38,000  Level Los Angeles Center
Wed 05:09:16 PM 34.1586 -115.4411 260° West 415 478 38,000  Level Los Angeles Center
Wed 05:10:18 PM 34.1358 -115.6039 260° West 412 474 38,000  Level Los Angeles Center
Wed 05:11:20 PM 34.1167 -115.7422 261° West 417 480 38,000  Level Los Angeles Center
Wed 05:12:22 PM 34.0967 -115.8789 260° West 416 479 38,000 -48 Level Los Angeles Center
Wed 05:13:24 PM 34.0756 -116.0133 259° West 413 475 37,900 -1,065 Descending Los Angeles Center
Wed 05:14:26 PM 34.0558 -116.1519 260° West 419 482 35,800 -2,613 Descending Los Angeles Center
Wed 05:15:28 PM 34.0339 -116.2939 259° West 430 495 32,500 -3,744 Descending Los Angeles Center
Wed 05:16:31 PM 34.0072 -116.4744 260° West 455 524 28,000 -3,648 Descending Los Angeles Center
Wed 05:17:33 PM 33.9936 -116.6258 264° West 456 525 24,900 -2,806 Descending Los Angeles Center
Wed 05:18:35 PM 33.9825 -116.7717 265° West 442 509 22,200 -2,613 Descending Los Angeles Center
Wed 05:19:37 PM 33.9714 -116.9097 264° West 423 487 19,500 -2,274 Descending Los Angeles Center
Wed 05:20:39 PM 33.9603 -117.0406 264° West 401 461 17,500 -1,524 Descending Los Angeles Center
Wed 05:21:43 PM 33.9500 -117.1833 265° West 355 409 16,300 -1,008 Descending Southern California TRACON
Wed 05:22:44 PM 33.9333 -117.3167 261° West 363 418 15,400 -939 Descending Southern California TRACON
Wed 05:23:38 PM 33.9500 -117.4167 281° West 356 410 14,500 -1,000 Descending Southern California TRACON
Wed 05:24:38 PM 33.9833 -117.5167 292° West 331 381 13,500 -1,300 Descending Southern California TRACON
Wed 05:25:38 PM 34.0167 -117.6167 292° West 321 369 11,900 -1,750 Descending Southern California TRACON
Wed 05:26:38 PM 34.0000 -117.7333 260° West 308 354 10,000 -1,650 Descending Southern California TRACON
Wed 05:27:38 PM 34.0000 -117.8333 270° West 301 346 8,600 -1,400 Descending Southern California TRACON
Wed 05:28:38 PM 33.9833 -117.9167 256° West 294 338 7,200 -1,350 Descending Southern California TRACON
Wed 05:29:38 PM 33.9667 -118.0167 259° West 287 330 5,900 -1,250 Descending Southern California TRACON
Wed 05:30:38 PM 33.9667 -118.1000 270° West 255 293 4,700 -1,200 Descending Southern California TRACON
Wed 05:31:13 PM 33.9617 -118.1453 262° West 261 300 4,000 -1,200 Descending Los Angeles Center

Login

Don't have an account? Register now (free) for customized features, flight alerts, and more!